Time;durP1;ratioP1;P1;durP2;ratioP2;P2;SDS_P1;SDS_P2;PMS_P1;PMS_P2;Temp;Humidity;BMP_temperature;BMP_pressure;BME280_temperature;BME280_humidity;BME280_pressure;Samples;Min_cycle;Max_cycle;Signal;HPM_P1;HPM_P2
2024/03/08 00:00:14;;;;;;;30.13;15.48;;;6.80;99.90;;;;;;5069371;28;20044;-46
2024/03/08 00:02:40;;;;;;;29.02;15.48;;;6.80;99.90;;;;;;5069467;28;20098;-46
2024/03/08 00:05:08;;;;;;;29.80;15.00;;;6.70;99.90;;;;;;5068279;28;20048;-46
2024/03/08 00:07:37;;;;;;;28.73;14.32;;;6.70;99.90;;;;;;5069341;28;20067;-49
2024/03/08 00:10:04;;;;;;;29.38;15.15;;;6.70;99.90;;;;;;5068978;28;20162;-47
2024/03/08 00:12:30;;;;;;;29.02;15.73;;;6.70;99.90;;;;;;5069166;28;20212;-45
2024/03/08 00:14:56;;;;;;;28.88;13.98;;;6.70;99.90;;;;;;5068986;28;20032;-46
2024/03/08 00:17:28;;;;;;;29.80;15.60;;;6.60;99.90;;;;;;5068950;28;20029;-46
2024/03/08 00:19:54;;;;;;;30.33;15.45;;;6.60;99.90;;;;;;5068370;28;20052;-54
2024/03/08 00:22:20;;;;;;;31.77;15.25;;;6.60;99.90;;;;;;5068840;28;20036;-48
2024/03/08 00:24:45;;;;;;;36.05;16.08;;;6.60;99.90;;;;;;5068897;28;20168;-49
2024/03/08 00:27:11;;;;;;;25.77;12.95;;;6.60;99.90;;;;;;5068687;28;20029;-47
2024/03/08 00:29:38;;;;;;;30.13;15.27;;;6.60;99.90;;;;;;5068736;28;20052;-46
2024/03/08 00:32:04;;;;;;;22.13;10.93;;;6.60;99.90;;;;;;5068631;28;20123;-46
2024/03/08 00:34:31;;;;;;;28.23;13.68;;;6.60;99.90;;;;;;5068771;28;20033;-47
2024/03/08 00:36:58;;;;;;;32.03;15.57;;;6.60;99.90;;;;;;5068673;28;20079;-47
2024/03/08 00:39:24;;;;;;;30.83;15.05;;;6.60;99.90;;;;;;5068688;28;20052;-46
2024/03/08 00:41:49;;;;;;;27.02;14.32;;;6.60;99.90;;;;;;5068364;28;20024;-47
2024/03/08 00:44:15;;;;;;;27.92;15.70;;;6.60;99.90;;;;;;5067612;28;20066;-49
2024/03/08 00:46:40;;;;;;;27.08;13.63;;;6.50;99.90;;;;;;5068566;28;20037;-47
2024/03/08 00:49:06;;;;;;;28.42;14.93;;;6.50;99.90;;;;;;5068496;28;20037;-46
2024/03/08 00:51:32;;;;;;;27.92;14.45;;;6.40;99.90;;;;;;5067573;28;20017;-46
2024/03/08 00:53:58;;;;;;;29.33;13.13;;;6.40;99.90;;;;;;5068196;28;20233;-49
2024/03/08 00:56:24;;;;;;;28.65;14.60;;;6.30;99.90;;;;;;5068218;28;20198;-47
2024/03/08 00:58:50;;;;;;;24.67;12.30;;;6.40;99.90;;;;;;5068158;28;20078;-49
2024/03/08 01:01:18;;;;;;;21.05;12.32;;;6.40;99.90;;;;;;5068138;28;20071;-46
2024/03/08 01:03:43;;;;;;;22.67;12.13;;;6.40;99.90;;;;;;5067232;28;20037;-49
2024/03/08 01:06:09;;;;;;;26.70;11.80;;;6.40;99.90;;;;;;5068007;28;20020;-46
2024/03/08 01:08:38;;;;;;;26.30;13.02;;;6.40;99.90;;;;;;5067545;28;20029;-47
2024/03/08 01:11:04;;;;;;;24.17;12.13;;;6.40;99.90;;;;;;5068048;28;20064;-48
2024/03/08 01:13:30;;;;;;;24.00;12.68;;;6.40;99.90;;;;;;5068117;28;20025;-47
2024/03/08 01:15:56;;;;;;;25.80;12.63;;;6.40;99.90;;;;;;5067777;28;20043;-47
2024/03/08 01:18:22;;;;;;;25.60;13.60;;;6.30;99.90;;;;;;5067732;28;20108;-46
2024/03/08 01:20:47;;;;;;;25.35;12.07;;;6.30;99.90;;;;;;5067734;28;20087;-46
2024/03/08 01:23:13;;;;;;;27.73;13.32;;;6.30;99.90;;;;;;5067490;28;20032;-47
2024/03/08 01:25:39;;;;;;;26.63;13.80;;;6.30;99.90;;;;;;5067721;28;20182;-46
2024/03/08 01:28:05;;;;;;;26.80;13.32;;;6.30;99.90;;;;;;5067567;28;20040;-49
2024/03/08 01:30:32;;;;;;;24.65;12.40;;;6.30;99.90;;;;;;5067673;28;20071;-46
2024/03/08 01:32:58;;;;;;;28.27;13.57;;;6.30;99.90;;;;;;5067696;28;20044;-48
2024/03/08 01:35:24;;;;;;;25.30;12.80;;;6.40;99.90;;;;;;5067544;28;20151;-46
2024/03/08 01:37:49;;;;;;;27.70;13.85;;;6.40;99.90;;;;;;5067495;28;20035;-47
2024/03/08 01:40:16;;;;;;;22.98;12.27;;;6.40;99.90;;;;;;5067305;28;20093;-45
2024/03/08 01:42:42;;;;;;;28.45;12.95;;;6.40;99.90;;;;;;5067109;28;20228;-47
2024/03/08 01:45:08;;;;;;;26.38;12.82;;;6.30;99.90;;;;;;5067294;28;20039;-46
2024/03/08 01:47:34;;;;;;;26.27;12.40;;;6.30;99.90;;;;;;5067066;28;20029;-45
2024/03/08 01:50:03;;;;;;;27.85;12.70;;;6.30;99.90;;;;;;5067105;28;20025;-47
2024/03/08 01:52:32;;;;;;;24.17;11.68;;;6.30;99.90;;;;;;5049933;28;20067;-47
2024/03/08 01:55:03;;;;;;;23.67;12.63;;;6.20;99.90;;;;;;5033212;28;20067;-47
2024/03/08 01:57:29;;;;;;;26.65;12.93;;;6.10;99.90;;;;;;5066950;28;20024;-47
2024/03/08 01:59:55;;;;;;;26.50;12.88;;;6.10;99.90;;;;;;5066274;28;20047;-46
2024/03/08 02:02:21;;;;;;;26.38;13.15;;;6.10;99.90;;;;;;5066044;28;20084;-46
2024/03/08 02:04:47;;;;;;;22.77;11.70;;;6.10;99.90;;;;;;5066000;28;20098;-47
2024/03/08 02:07:13;;;;;;;24.30;11.68;;;6.00;99.90;;;;;;5066014;28;20237;-46
2024/03/08 02:09:39;;;;;;;26.15;12.02;;;6.00;99.90;;;;;;5067026;28;20317;-45
2024/03/08 02:12:05;;;;;;;26.13;13.10;;;5.90;99.90;;;;;;5066844;28;20056;-48
2024/03/08 02:14:31;;;;;;;27.15;12.77;;;5.80;99.90;;;;;;5065601;28;20151;-46
2024/03/08 02:17:02;;;;;;;27.02;13.60;;;5.70;99.90;;;;;;5066772;28;20187;-46
2024/03/08 02:19:28;;;;;;;28.70;13.57;;;5.70;99.90;;;;;;5065519;28;20045;-49
2024/03/08 02:21:54;;;;;;;27.42;12.93;;;5.80;99.90;;;;;;5066533;28;20179;-45
2024/03/08 02:24:19;;;;;;;26.45;13.65;;;5.80;99.90;;;;;;5066577;28;20025;-46
2024/03/08 02:26:45;;;;;;;22.67;10.82;;;5.70;99.90;;;;;;5066573;28;20301;-47
2024/03/08 02:29:11;;;;;;;26.65;12.52;;;5.70;99.90;;;;;;5066302;28;20359;-46
2024/03/08 02:31:39;;;;;;;26.55;12.07;;;5.60;99.90;;;;;;5065412;28;20056;-47
2024/03/08 02:34:05;;;;;;;26.90;12.48;;;5.70;99.90;;;;;;5066337;28;20039;-45
2024/03/08 02:36:34;;;;;;;18.88;8.48;;;5.80;99.90;;;;;;5066445;28;20033;-47
2024/03/08 02:39:01;;;;;;;21.00;10.60;;;5.80;99.90;;;;;;5066320;28;20028;-45
2024/03/08 02:41:27;;;;;;;24.98;11.75;;;5.80;99.90;;;;;;5066269;28;20139;-46
2024/03/08 02:43:53;;;;;;;23.90;13.48;;;5.80;99.90;;;;;;5065844;28;20222;-45
2024/03/08 02:46:20;;;;;;;25.75;14.27;;;5.80;99.90;;;;;;5066314;28;20024;-46
2024/03/08 02:48:46;;;;;;;18.73;9.68;;;5.80;99.90;;;;;;5066130;28;20028;-46
2024/03/08 02:51:13;;;;;;;17.45;9.35;;;5.80;99.90;;;;;;5066152;28;20037;-46
2024/03/08 02:53:39;;;;;;;23.00;10.70;;;5.90;99.90;;;;;;5066210;28;20334;-47
2024/03/08 02:56:08;;;;;;;24.95;12.40;;;6.00;99.90;;;;;;5065857;28;20025;-46
2024/03/08 02:58:33;;;;;;;24.70;12.33;;;5.90;99.90;;;;;;5065113;28;20044;-45
2024/03/08 03:00:59;;;;;;;29.10;13.57;;;5.80;99.90;;;;;;5065896;28;20444;-45
2024/03/08 03:03:26;;;;;;;26.55;13.15;;;5.80;99.90;;;;;;5065852;28;20308;-48
2024/03/08 03:05:55;;;;;;;16.88;8.43;;;5.70;99.90;;;;;;5065832;28;20369;-45
2024/03/08 03:08:21;;;;;;;29.20;13.75;;;5.70;99.90;;;;;;5065769;28;20036;-46
2024/03/08 03:10:46;;;;;;;29.45;13.63;;;5.70;99.90;;;;;;5065821;28;20322;-47
2024/03/08 03:13:13;;;;;;;25.73;13.52;;;5.70;99.90;;;;;;5065921;28;20051;-45
2024/03/08 03:15:41;;;;;;;30.77;13.82;;;5.70;99.90;;;;;;5064956;28;20029;-45
2024/03/08 03:18:07;;;;;;;30.13;15.30;;;5.70;99.90;;;;;;5065296;28;20076;-46
2024/03/08 03:20:37;;;;;;;26.63;14.60;;;5.70;99.90;;;;;;5065653;28;20037;-48
2024/03/08 03:23:03;;;;;;;26.77;12.85;;;5.70;99.90;;;;;;5065781;28;20036;-45
2024/03/08 03:25:33;;;;;;;31.17;14.88;;;5.70;99.90;;;;;;5065381;28;20031;-46
2024/03/08 03:27:59;;;;;;;30.02;15.43;;;5.70;99.90;;;;;;5065579;28;20104;-45
2024/03/08 03:30:27;;;;;;;33.13;14.57;;;5.60;99.90;;;;;;5065563;28;20036;-45
2024/03/08 03:32:54;;;;;;;29.45;15.70;;;5.60;99.90;;;;;;5065383;28;20313;-45
2024/03/08 03:35:20;;;;;;;32.78;15.52;;;5.60;99.90;;;;;;5064804;28;20056;-46
2024/03/08 03:38:01;;;;;;;29.30;13.90;;;5.60;99.90;;;;;;5065326;28;20142;-45
2024/03/08 03:40:28;;;;;;;32.78;17.42;;;5.60;99.90;;;;;;5065462;28;20280;-45
2024/03/08 03:42:53;;;;;;;33.00;16.48;;;5.60;99.90;;;;;;5065460;28;20301;-45
2024/03/08 03:45:19;;;;;;;34.58;16.90;;;5.60;99.90;;;;;;5065349;28;20088;-45
2024/03/08 03:47:46;;;;;;;33.65;17.42;;;5.60;99.90;;;;;;5065382;28;20029;-46
2024/03/08 03:50:11;;;;;;;34.22;16.95;;;5.70;99.90;;;;;;5064902;28;20225;-46
2024/03/08 03:52:37;;;;;;;31.90;15.68;;;5.70;99.90;;;;;;5065428;28;20021;-46
2024/03/08 03:55:04;;;;;;;33.08;16.63;;;5.80;99.90;;;;;;5065385;28;20094;-46
2024/03/08 03:57:33;;;;;;;37.30;17.17;;;5.70;99.90;;;;;;5065039;28;20035;-47
2024/03/08 03:59:58;;;;;;;32.40;16.45;;;5.70;99.90;;;;;;5065065;28;20029;-45
2024/03/08 04:02:26;;;;;;;33.95;17.25;;;5.70;99.90;;;;;;5065233;28;20067;-45
2024/03/08 04:04:54;;;;;;;38.45;19.27;;;5.70;99.90;;;;;;5064698;28;20025;-47
2024/03/08 04:07:20;;;;;;;28.20;13.27;;;5.70;99.90;;;;;;5064848;28;20029;-45
2024/03/08 04:09:46;;;;;;;34.97;16.65;;;5.80;99.90;;;;;;5065202;28;20309;-46
2024/03/08 04:12:12;;;;;;;27.25;12.88;;;5.90;99.90;;;;;;5065269;28;20083;-46
2024/03/08 04:14:41;;;;;;;36.90;18.52;;;5.90;99.90;;;;;;5065254;28;20033;-46
2024/03/08 04:17:08;;;;;;;37.47;18.23;;;5.90;99.90;;;;;;5065167;28;20281;-45
2024/03/08 04:19:34;;;;;;;38.38;19.60;;;5.80;99.90;;;;;;5064675;28;20048;-46
2024/03/08 04:22:00;;;;;;;39.55;19.08;;;5.70;99.90;;;;;;5064974;28;20025;-47
2024/03/08 04:24:26;;;;;;;36.22;17.73;;;5.60;99.90;;;;;;5064642;28;20024;-45
2024/03/08 04:26:52;;;;;;;36.55;18.80;;;5.60;99.90;;;;;;5065062;28;20025;-46
2024/03/08 04:29:18;;;;;;;35.50;17.13;;;5.70;99.90;;;;;;5064747;28;20048;-46
2024/03/08 04:31:44;;;;;;;30.45;14.85;;;5.70;99.90;;;;;;5065038;28;20088;-46
2024/03/08 04:34:10;;;;;;;37.75;19.75;;;5.60;99.90;;;;;;5065028;28;20321;-46
2024/03/08 04:36:36;;;;;;;34.85;17.15;;;5.50;99.90;;;;;;5065058;28;20051;-46
2024/03/08 04:39:02;;;;;;;36.65;18.63;;;5.50;99.90;;;;;;5064951;28;20036;-46
2024/03/08 04:41:27;;;;;;;33.95;16.13;;;5.40;99.90;;;;;;5064953;28;20021;-46
2024/03/08 04:43:53;;;;;;;36.53;17.52;;;5.50;99.90;;;;;;5066582;28;20173;-46
2024/03/08 04:46:19;;;;;;;33.08;15.93;;;5.50;99.90;;;;;;5067450;28;20041;-47
2024/03/08 04:48:44;;;;;;;36.25;17.55;;;5.50;99.90;;;;;;5068413;28;20116;-46
2024/03/08 04:51:10;;;;;;;43.60;20.88;;;5.50;99.90;;;;;;5068018;28;20029;-46
2024/03/08 04:53:36;;;;;;;37.20;18.05;;;5.50;99.90;;;;;;5050792;28;20052;-44
2024/03/08 04:56:05;;;;;;;40.35;18.88;;;5.40;99.90;;;;;;5068101;28;20045;-45
2024/03/08 04:58:34;;;;;;;36.50;18.05;;;5.30;99.90;;;;;;5068295;28;20032;-45
2024/03/08 05:01:01;;;;;;;32.38;14.73;;;5.40;99.90;;;;;;5068167;28;20346;-46
2024/03/08 05:03:26;;;;;;;27.40;12.38;;;5.50;99.90;;;;;;5068232;28;20051;-46
2024/03/08 05:05:53;;;;;;;39.85;17.67;;;5.70;99.90;;;;;;5068011;28;20297;-46
2024/03/08 05:08:19;;;;;;;37.22;19.83;;;5.70;99.90;;;;;;5067984;28;20282;-46
2024/03/08 05:10:45;;;;;;;34.55;16.50;;;5.60;99.90;;;;;;5067997;28;20033;-46
2024/03/08 05:13:12;;;;;;;35.45;17.75;;;5.50;99.90;;;;;;5067897;28;20152;-46
2024/03/08 05:15:39;;;;;;;39.55;19.05;;;5.50;99.90;;;;;;5066980;28;20078;-47
2024/03/08 05:18:05;;;;;;;39.30;19.13;;;5.40;99.90;;;;;;5066703;28;20338;-47
2024/03/08 05:20:30;;;;;;;34.70;15.93;;;5.50;99.90;;;;;;5067820;28;20044;-45
2024/03/08 05:22:58;;;;;;;39.22;19.70;;;5.60;99.90;;;;;;5067839;28;20040;-46
2024/03/08 05:25:24;;;;;;;43.13;19.67;;;5.60;99.90;;;;;;5067508;28;20257;-48
2024/03/08 05:27:50;;;;;;;39.78;18.80;;;5.60;99.90;;;;;;5067553;28;20025;-46
2024/03/08 05:30:15;;;;;;;37.83;18.35;;;5.60;99.90;;;;;;5066789;28;20032;-46
2024/03/08 05:32:44;;;;;;;37.45;18.27;;;5.60;99.90;;;;;;5067736;28;20036;-46
2024/03/08 05:35:12;;;;;;;42.58;19.60;;;5.50;99.90;;;;;;5066642;28;20029;-46
2024/03/08 05:37:38;;;;;;;40.83;18.30;;;5.50;99.90;;;;;;5067261;28;20048;-47
2024/03/08 05:40:08;;;;;;;45.90;21.75;;;5.50;99.90;;;;;;5067379;28;20037;-46
2024/03/08 05:42:35;;;;;;;;;;;5.60;99.90;;;;;;5066835;28;20021;-45
2024/03/08 05:45:00;;;;;;;43.97;21.48;;;5.60;99.90;;;;;;5067437;28;19919;-45
2024/03/08 05:47:26;;;;;;;35.08;16.15;;;5.60;99.90;;;;;;5067360;28;20028;-45
2024/03/08 05:49:53;;;;;;;43.05;21.10;;;5.70;99.90;;;;;;5067191;28;20028;-46
2024/03/08 05:52:19;;;;;;;41.28;19.45;;;5.70;99.90;;;;;;5067093;28;20033;-47
2024/03/08 05:54:45;;;;;;;46.03;21.00;;;5.70;99.90;;;;;;5066888;28;20195;-45
2024/03/08 05:57:11;;;;;;;40.58;19.85;;;5.70;99.90;;;;;;5066979;28;20290;-46
2024/03/08 05:59:37;;;;;;;46.35;20.88;;;5.60;99.90;;;;;;5065903;28;20041;-46
2024/03/08 06:02:03;;;;;;;43.13;21.25;;;5.50;99.90;;;;;;5066973;28;20037;-45
2024/03/08 06:04:29;;;;;;;44.03;20.23;;;5.50;99.90;;;;;;5067023;28;20018;-47
2024/03/08 06:06:56;;;;;;;40.58;20.15;;;5.50;99.90;;;;;;5067014;28;20290;-47
2024/03/08 06:09:23;;;;;;;44.15;23.02;;;5.40;99.90;;;;;;5066820;28;20067;-46
2024/03/08 06:11:49;;;;;;;42.60;21.58;;;5.30;99.90;;;;;;5066972;28;20070;-49
2024/03/08 06:14:18;;;;;;;38.58;20.50;;;5.30;99.90;;;;;;5066850;28;20052;-46
2024/03/08 06:16:47;;;;;;;44.33;22.42;;;5.30;99.90;;;;;;5066316;28;20043;-46
2024/03/08 06:19:13;;;;;;;41.58;21.88;;;5.30;99.90;;;;;;5065535;28;20055;-46
2024/03/08 06:21:39;;;;;;;41.50;19.90;;;5.30;99.90;;;;;;5065729;28;20091;-45
2024/03/08 06:24:05;;;;;;;45.83;22.27;;;5.30;99.90;;;;;;5066482;28;20032;-46
2024/03/08 06:26:30;;;;;;;44.13;20.50;;;5.30;99.90;;;;;;5066672;28;20080;-48
2024/03/08 06:28:56;;;;;;;42.38;20.58;;;5.30;99.90;;;;;;5066449;28;20029;-45
2024/03/08 06:31:22;;;;;;;38.63;20.75;;;5.30;99.90;;;;;;5066146;28;20017;-45
2024/03/08 06:33:51;;;;;;;41.70;18.73;;;5.30;99.90;;;;;;5066526;28;20100;-45
2024/03/08 06:36:18;;;;;;;43.83;19.80;;;5.40;99.90;;;;;;5066266;28;20024;-46
2024/03/08 06:38:46;;;;;;;45.85;21.63;;;5.40;99.90;;;;;;5065261;28;20036;-46
2024/03/08 06:41:17;;;;;;;34.72;15.93;;;5.40;99.90;;;;;;5065684;28;20295;-45
2024/03/08 06:43:43;;;;;;;40.63;20.60;;;5.40;99.90;;;;;;5066216;28;20100;-45
2024/03/08 06:46:09;;;;;;;44.33;22.13;;;5.40;99.90;;;;;;5065554;28;20342;-45
2024/03/08 06:48:37;;;;;;;43.95;21.38;;;5.40;99.90;;;;;;5066095;28;20028;-48
2024/03/08 06:51:03;;;;;;;40.33;18.80;;;5.40;99.90;;;;;;5065955;28;20109;-48
2024/03/08 06:53:28;;;;;;;43.47;20.98;;;5.40;99.90;;;;;;5065690;28;20028;-47
2024/03/08 06:55:54;;;;;;;41.60;20.50;;;5.40;99.90;;;;;;5065773;28;20028;-45
2024/03/08 06:58:20;;;;;;;41.10;19.38;;;5.40;99.90;;;;;;5065838;28;20107;-47
2024/03/08 07:00:46;;;;;;;44.38;22.55;;;5.40;99.90;;;;;;5065884;28;20033;-47
2024/03/08 07:03:17;;;;;;;41.65;20.35;;;5.40;99.90;;;;;;5065548;28;20021;-46
2024/03/08 07:05:42;;;;;;;36.95;18.63;;;5.40;99.90;;;;;;5065287;28;20033;-46
2024/03/08 07:08:08;;;;;;;44.40;19.88;;;5.40;99.90;;;;;;5065733;28;20094;-46
2024/03/08 07:10:34;;;;;;;38.85;16.77;;;5.40;99.90;;;;;;5065569;28;20036;-46
2024/03/08 07:13:02;;;;;;;42.80;21.00;;;5.40;99.90;;;;;;5065887;28;20108;-46
2024/03/08 07:15:28;;;;;;;40.70;19.75;;;5.50;99.90;;;;;;5065534;28;20040;-47
2024/03/08 07:17:54;;;;;;;43.83;20.42;;;5.50;99.90;;;;;;5065463;28;20040;-47
2024/03/08 07:20:19;;;;;;;38.78;17.90;;;5.60;99.90;;;;;;5065665;28;20295;-47
2024/03/08 07:22:47;;;;;;;37.00;18.13;;;5.60;99.90;;;;;;5065602;28;20275;-47
2024/03/08 07:25:20;;;;;;;43.40;18.15;;;5.60;99.90;;;;;;5065713;28;20032;-46
2024/03/08 07:27:53;;;;;;;39.22;18.58;;;5.80;99.90;;;;;;5065408;28;20045;-46
2024/03/08 07:33:04;;;;;;;25.48;12.55;;;6.00;99.90;;;;;;5065636;28;20055;-46
2024/03/08 07:35:31;;;;;;;30.92;14.07;;;6.30;99.90;;;;;;5065523;28;20102;-47
2024/03/08 07:37:56;;;;;;;30.05;14.25;;;6.50;99.90;;;;;;5065245;28;20033;-46
2024/03/08 07:40:23;;;;;;;34.97;17.25;;;6.60;99.90;;;;;;5065296;28;20104;-47
2024/03/08 07:42:51;;;;;;;36.80;19.95;;;6.70;99.90;;;;;;5065355;28;20164;-46
2024/03/08 07:45:17;;;;;;;35.35;17.95;;;6.90;99.90;;;;;;5065169;28;20033;-46
2024/03/08 07:47:43;;;;;;;37.53;17.95;;;7.00;99.90;;;;;;5065132;28;20028;-47
2024/03/08 07:50:09;;;;;;;38.80;18.23;;;7.00;99.90;;;;;;5065139;28;20029;-47
2024/03/08 07:52:36;;;;;;;32.78;16.38;;;7.10;99.90;;;;;;5065205;28;20083;-46
2024/03/08 07:55:02;;;;;;;37.47;19.75;;;7.30;99.90;;;;;;5064906;28;20063;-47
2024/03/08 07:57:27;;;;;;;38.15;19.73;;;7.40;99.90;;;;;;5064994;28;20051;-47
2024/03/08 07:59:53;;;;;;;38.10;18.70;;;7.60;99.90;;;;;;5065068;28;20187;-47
2024/03/08 08:02:18;;;;;;;37.67;17.98;;;7.80;99.90;;;;;;5064911;28;20035;-46
2024/03/08 08:04:47;;;;;;;42.33;25.92;;;7.80;99.90;;;;;;5065280;28;20035;-47
2024/03/08 08:07:14;;;;;;;33.97;17.67;;;7.90;99.90;;;;;;5064947;28;20037;-46
2024/03/08 08:09:40;;;;;;;38.85;19.88;;;8.10;99.90;;;;;;5064805;28;20025;-48
2024/03/08 08:12:07;;;;;;;36.97;18.63;;;8.30;99.90;;;;;;5064612;28;20043;-45
2024/03/08 08:14:32;;;;;;;26.00;13.82;;;8.40;99.90;;;;;;5065051;28;20028;-47
2024/03/08 08:17:03;;;;;;;38.95;17.63;;;8.20;99.90;;;;;;5064947;28;20029;-46
2024/03/08 08:19:29;;;;;;;31.48;17.05;;;8.50;99.90;;;;;;5067295;28;20044;-48
2024/03/08 08:21:54;;;;;;;31.15;15.55;;;8.60;99.90;;;;;;5068708;28;20095;-46
2024/03/08 08:24:21;;;;;;;32.33;16.13;;;8.70;99.90;;;;;;5068234;28;20072;-46
2024/03/08 08:26:47;;;;;;;36.90;17.58;;;8.90;99.90;;;;;;5068310;28;20025;-46
2024/03/08 08:29:13;;;;;;;31.05;16.65;;;9.00;99.90;;;;;;5068421;28;20037;-45
2024/03/08 08:31:39;;;;;;;27.02;14.38;;;9.10;99.90;;;;;;5068508;28;20043;-46
2024/03/08 08:34:06;;;;;;;32.08;16.27;;;8.90;99.90;;;;;;5068907;28;20095;-46
2024/03/08 08:36:31;;;;;;;33.47;16.00;;;9.10;99.90;;;;;;5068419;28;20028;-47
2024/03/08 08:38:58;;;;;;;34.28;20.15;;;9.30;99.90;;;;;;5068100;28;20088;-48
2024/03/08 08:41:24;;;;;;;32.50;15.85;;;9.40;99.90;;;;;;5068030;28;20345;-49
2024/03/08 08:43:50;;;;;;;30.77;14.00;;;9.30;99.90;;;;;;5067166;28;20025;-49
2024/03/08 08:46:18;;;;;;;33.03;17.30;;;9.60;99.90;;;;;;5067919;28;20230;-46
2024/03/08 08:48:47;;;;;;;32.47;15.40;;;9.90;99.90;;;;;;5066858;28;20032;-46
2024/03/08 08:51:13;;;;;;;26.08;13.50;;;10.00;99.90;;;;;;5068305;28;20229;-49
2024/03/08 08:53:42;;;;;;;30.48;14.35;;;9.90;99.90;;;;;;5066510;28;20135;-47
2024/03/08 08:56:15;;;;;;;25.48;12.85;;;9.90;99.90;;;;;;5067717;28;20021;-47
2024/03/08 08:58:44;;;;;;;21.45;10.57;;;10.20;99.90;;;;;;5068064;28;20033;-49
2024/03/08 09:01:10;;;;;;;29.85;14.30;;;10.10;99.90;;;;;;5067358;28;20344;-49
2024/03/08 09:03:40;;;;;;;27.83;14.20;;;10.30;99.90;;;;;;5068204;28;20036;-49
2024/03/08 09:06:13;;;;;;;26.02;13.93;;;10.40;99.90;;;;;;5067769;28;20029;-49
2024/03/08 09:08:42;;;;;;;30.75;15.18;;;10.50;99.90;;;;;;5067807;28;20039;-49
2024/03/08 09:11:07;;;;;;;31.35;14.13;;;11.10;99.90;;;;;;5067422;28;20033;-47
2024/03/08 09:13:36;;;;;;;29.42;14.43;;;11.30;99.90;;;;;;5067456;28;20039;-50
2024/03/08 09:16:02;;;;;;;27.35;13.60;;;11.30;99.90;;;;;;5067323;28;20092;-49
2024/03/08 09:18:29;;;;;;;22.27;11.68;;;11.40;99.90;;;;;;5067227;28;20061;-49
2024/03/08 09:20:54;;;;;;;27.08;13.25;;;11.10;99.90;;;;;;5067405;28;20157;-47
2024/03/08 09:23:20;;;;;;;29.15;14.98;;;11.30;99.90;;;;;;5067558;28;20021;-48
2024/03/08 09:25:46;;;;;;;26.73;12.82;;;11.40;99.90;;;;;;5067638;28;20044;-47
2024/03/08 09:28:12;;;;;;;28.42;13.18;;;11.60;99.90;;;;;;5066955;28;20021;-48
2024/03/08 09:30:38;;;;;;;32.70;14.73;;;11.80;99.90;;;;;;5067000;28;20191;-49
2024/03/08 09:33:05;;;;;;;26.33;14.13;;;12.00;99.90;;;;;;5067098;28;20112;-45
2024/03/08 09:35:31;;;;;;;29.38;13.20;;;12.40;99.90;;;;;;5066805;28;20025;-48
2024/03/08 09:37:57;;;;;;;32.15;15.43;;;11.90;99.90;;;;;;5066302;28;20182;-48
2024/03/08 09:40:24;;;;;;;25.27;13.40;;;12.00;99.90;;;;;;5066100;28;20033;-46
2024/03/08 09:42:50;;;;;;;24.67;11.98;;;12.00;99.90;;;;;;5067182;28;20025;-49
2024/03/08 09:45:16;;;;;;;27.65;13.63;;;11.80;99.90;;;;;;5066659;28;20029;-49
2024/03/08 09:47:42;;;;;;;26.60;13.85;;;11.60;99.90;;;;;;5066235;28;20234;-49
2024/03/08 09:50:09;;;;;;;26.73;13.30;;;11.50;99.90;;;;;;5066923;28;20025;-48
2024/03/08 09:52:37;;;;;;;26.67;13.55;;;11.00;99.90;;;;;;5066937;28;20033;-47
2024/03/08 09:55:06;;;;;;;20.15;9.30;;;10.60;99.90;;;;;;5066669;28;20072;-49
2024/03/08 09:57:34;;;;;;;25.48;13.48;;;10.50;99.90;;;;;;5066391;28;20076;-46
2024/03/08 10:00:00;;;;;;;25.10;12.10;;;11.10;99.90;;;;;;5049179;28;20029;-50
2024/03/08 10:02:26;;;;;;;28.17;12.77;;;11.60;99.90;;;;;;5066714;28;20326;-49
2024/03/08 10:04:53;;;;;;;28.40;13.55;;;12.30;99.90;;;;;;5066465;28;20071;-50
2024/03/08 10:07:18;;;;;;;29.48;13.45;;;12.60;99.90;;;;;;5066452;28;20020;-50
2024/03/08 10:09:49;;;;;;;25.95;13.73;;;12.60;99.90;;;;;;5066423;28;20075;-47
2024/03/08 10:12:16;;;;;;;26.63;13.75;;;12.80;99.90;;;;;;5066498;28;20100;-48
2024/03/08 10:14:42;;;;;;;24.38;10.93;;;12.90;99.90;;;;;;5067000;28;20087;-48
2024/03/08 10:17:07;;;;;;;22.98;11.60;;;12.90;99.90;;;;;;5065142;28;20167;-49
2024/03/08 10:19:34;;;;;;;30.58;15.07;;;12.90;99.90;;;;;;5065983;28;20117;-48
2024/03/08 10:21:59;;;;;;;26.40;13.90;;;13.20;99.90;;;;;;5066059;28;20170;-48
2024/03/08 10:24:25;;;;;;;26.77;14.20;;;13.90;99.90;;;;;;5064815;28;20033;-48
2024/03/08 10:27:04;;;;;;;31.55;15.30;;;14.40;99.90;;;;;;5066181;28;20031;-49
2024/03/08 10:29:31;;;;;;;27.05;13.80;;;14.30;99.90;;;;;;5065384;28;20025;-48
2024/03/08 10:31:57;;;;;;;24.48;13.75;;;13.70;99.90;;;;;;5065855;28;20099;-49
2024/03/08 10:34:23;;;;;;;32.75;13.50;;;14.00;99.90;;;;;;5065909;28;20029;-48
2024/03/08 10:36:50;;;;;;;20.20;11.10;;;13.80;99.90;;;;;;5065430;28;20096;-49
2024/03/08 10:39:24;;;;;;;24.23;13.65;;;13.90;99.90;;;;;;5064931;28;20283;-50
2024/03/08 10:41:53;;;;;;;21.90;12.32;;;13.80;99.90;;;;;;5064790;28;20044;-49
2024/03/08 10:44:43;;;;;;;26.17;14.98;;;13.80;99.90;;;;;;5064744;28;20037;-49
2024/03/08 10:47:26;;;;;;;25.05;13.95;;;13.70;99.90;;;;;;5065351;28;20254;-48
2024/03/08 10:50:03;;;;;;;19.60;11.48;;;13.90;99.90;;;;;;5065115;28;20029;-49
2024/03/08 10:52:29;;;;;;;22.65;12.10;;;13.90;99.90;;;;;;5065631;28;20039;-49
2024/03/08 10:54:55;;;;;;;25.45;11.73;;;13.90;99.90;;;;;;5065583;28;20179;-48
2024/03/08 10:57:20;;;;;;;24.52;13.05;;;14.10;99.90;;;;;;5065578;28;20025;-49
2024/03/08 10:59:49;;;;;;;24.33;13.30;;;14.30;99.90;;;;;;5047870;28;20078;-49
2024/03/08 11:02:16;;;;;;;27.25;13.02;;;14.10;99.90;;;;;;5064189;28;20275;-49
2024/03/08 11:04:49;;;;;;;25.48;13.48;;;14.30;99.90;;;;;;5064717;28;20028;-49
2024/03/08 11:07:18;;;;;;;24.17;13.63;;;14.20;99.90;;;;;;5065123;28;20031;-47
2024/03/08 11:09:45;;;;;;;22.80;12.05;;;14.10;99.90;;;;;;5065255;28;20040;-47
2024/03/08 11:12:30;;;;;;;22.10;12.18;;;14.20;99.90;;;;;;5065134;28;20060;-48
2024/03/08 11:15:18;;;;;;;22.65;14.35;;;14.40;99.90;;;;;;5065128;28;20278;-50
2024/03/08 11:17:50;;;;;;;27.65;13.85;;;15.10;99.90;;;;;;5065109;28;20302;-47
2024/03/08 11:20:16;;;;;;;22.25;12.32;;;15.60;99.90;;;;;;5065078;28;20128;-46
2024/03/08 11:22:49;;;;;;;21.45;11.75;;;15.30;99.90;;;;;;5064693;28;20024;-45
2024/03/08 11:25:36;;;;;;;24.80;12.93;;;14.90;99.90;;;;;;5064036;28;20025;-49
2024/03/08 11:28:18;;;;;;;23.17;12.00;;;15.10;99.90;;;;;;5064775;28;20045;-50
2024/03/08 11:31:04;;;;;;;20.27;10.80;;;15.00;99.90;;;;;;5064991;28;20274;-48
2024/03/08 11:33:30;;;;;;;23.52;12.00;;;15.10;99.90;;;;;;5064400;28;20041;-46
2024/03/08 11:36:16;;;;;;;31.65;16.15;;;15.60;99.90;;;;;;5064879;28;20204;-48
2024/03/08 11:38:49;;;;;;;30.48;13.95;;;15.30;99.90;;;;;;5064418;28;20283;-49
2024/03/08 11:41:24;;;;;;;24.25;14.02;;;15.00;99.90;;;;;;5064389;28;20040;-49
2024/03/08 11:43:50;;;;;;;28.05;14.32;;;15.10;99.90;;;;;;5064677;28;20075;-48
2024/03/08 11:46:16;;;;;;;29.75;15.50;;;15.10;99.90;;;;;;5063510;28;20166;-47
2024/03/08 11:48:43;;;;;;;21.58;11.70;;;15.80;99.90;;;;;;5064967;28;20040;-49
2024/03/08 11:51:12;;;;;;;25.80;13.10;;;15.90;99.90;;;;;;5064638;28;20060;-47
2024/03/08 11:53:38;;;;;;;34.20;15.57;;;14.70;99.90;;;;;;5067683;28;20032;-49
2024/03/08 11:56:08;;;;;;;29.83;16.00;;;15.50;99.90;;;;;;5068849;28;20293;-50
2024/03/08 11:58:33;;;;;;;27.08;15.52;;;15.20;99.90;;;;;;5067765;28;20088;-49
2024/03/08 12:01:07;;;;;;;21.20;12.05;;;15.00;99.90;;;;;;5068675;28;20079;-48
2024/03/08 12:03:33;;;;;;;27.77;15.68;;;14.60;99.90;;;;;;5068441;28;20229;-48
2024/03/08 12:06:00;;;;;;;18.42;10.95;;;14.90;99.90;;;;;;5068853;28;20024;-49
2024/03/08 12:08:28;;;;;;;29.50;14.80;;;14.80;99.90;;;;;;5067472;28;20202;-49
2024/03/08 12:10:59;;;;;;;23.55;13.48;;;15.40;99.90;;;;;;5068549;28;20091;-47
2024/03/08 12:13:29;;;;;;;27.73;14.90;;;15.20;99.90;;;;;;5066521;28;20036;-48
2024/03/08 12:16:00;;;;;;;20.42;11.85;;;15.50;99.90;;;;;;5068102;28;20029;-50
2024/03/08 12:18:27;;;;;;;26.80;14.68;;;15.80;99.90;;;;;;5066766;28;20036;-48
2024/03/08 12:21:07;;;;;;;25.42;11.93;;;15.60;99.90;;;;;;5068125;28;20041;-50
2024/03/08 12:23:34;;;;;;;19.38;11.45;;;15.40;99.90;;;;;;5067791;28;20044;-50
2024/03/08 12:26:16;;;;;;;22.35;11.02;;;15.80;99.90;;;;;;5067737;28;20186;-49
2024/03/08 12:28:44;;;;;;;23.67;14.18;;;15.10;99.90;;;;;;5068271;28;20020;-48
2024/03/08 12:31:11;;;;;;;23.40;12.23;;;15.50;99.90;;;;;;5067703;28;20041;-48
2024/03/08 12:33:49;;;;;;;21.40;11.95;;;15.60;99.90;;;;;;5066896;28;20283;-50
2024/03/08 12:36:15;;;;;;;24.25;13.73;;;15.70;99.90;;;;;;5067737;28;20031;-50